AAL1459 KSFO-KPHX
Flight info
| Callsign | AAL1459 |
|---|---|
| Flight time | 1h 42m |
| Altitude | 37000 |
| Route | WESLA5 KAYEX LOSHN BOILE BLH HYDRR1 |
| Aircraft | B738/M-SDE2E3FGHIRWXY/LB1 |
Departure
| Time | 2026-05-08 02:44 |
|---|---|
| Airport | San Francisco International Airport (KSFO) |
Arrival
| Time | 2026-05-08 04:26 |
|---|---|
| Airport | Phoenix Sky Harbor International Airport (KPHX) |
| Time | Latitude | Longitude | Altitude | Speed | Heading |
|---|---|---|---|---|---|
| 2026-05-08 02:15 | 37.61108 | -122.38673 | 16 ft | 0 kts | 116° |
| 2026-05-08 02:27 | 37.61116 | -122.38696 | 18 ft | 4 kts | 111° |
| 2026-05-08 02:27 | 37.61125 | -122.38728 | 20 ft | 4 kts | 106° |
| 2026-05-08 02:28 | 37.61133 | -122.38761 | 20 ft | 4 kts | 113° |
| 2026-05-08 02:28 | 37.61143 | -122.38782 | 20 ft | 4 kts | 185° |
| 2026-05-08 02:28 | 37.61145 | -122.38783 | 19 ft | 1 kts | 208° |
| 2026-05-08 02:31 | 37.61143 | -122.38784 | 20 ft | 1 kts | 208° |
| 2026-05-08 02:32 | 37.61135 | -122.38790 | 20 ft | 2 kts | 207° |
| 2026-05-08 02:32 | 37.61110 | -122.38806 | 18 ft | 6 kts | 207° |
| 2026-05-08 02:32 | 37.61057 | -122.38841 | 17 ft | 10 kts | 208° |
| 2026-05-08 02:32 | 37.60995 | -122.38822 | 17 ft | 11 kts | 125° |
| 2026-05-08 02:33 | 37.60977 | -122.38782 | 16 ft | 0 kts | 116° |
| 2026-05-08 02:33 | 37.60976 | -122.38781 | 16 ft | 1 kts | 116° |
| 2026-05-08 02:33 | 37.60971 | -122.38767 | 17 ft | 3 kts | 116° |
| 2026-05-08 02:34 | 37.60953 | -122.38724 | 16 ft | 8 kts | 117° |
| 2026-05-08 02:34 | 37.60920 | -122.38644 | 17 ft | 12 kts | 117° |
| 2026-05-08 02:34 | 37.60880 | -122.38546 | 17 ft | 9 kts | 111° |
| 2026-05-08 02:34 | 37.60910 | -122.38488 | 19 ft | 10 kts | 23° |
| 2026-05-08 02:35 | 37.60972 | -122.38439 | 19 ft | 12 kts | 36° |
| 2026-05-08 02:35 | 37.61050 | -122.38370 | 17 ft | 16 kts | 30° |
| 2026-05-08 02:35 | 37.61155 | -122.38301 | 17 ft | 18 kts | 28° |
| 2026-05-08 02:35 | 37.61275 | -122.38222 | 15 ft | 21 kts | 27° |
| 2026-05-08 02:36 | 37.61385 | -122.38149 | 16 ft | 8 kts | 28° |
| 2026-05-08 02:36 | 37.61406 | -122.38092 | 15 ft | 8 kts | 109° |
| 2026-05-08 02:36 | 37.61379 | -122.38022 | 15 ft | 10 kts | 116° |
| 2026-05-08 02:36 | 37.61339 | -122.37930 | 14 ft | 13 kts | 118° |
| 2026-05-08 02:37 | 37.61293 | -122.37822 | 16 ft | 14 kts | 117° |
| 2026-05-08 02:37 | 37.61248 | -122.37712 | 18 ft | 15 kts | 117° |
| 2026-05-08 02:37 | 37.61234 | -122.37577 | 17 ft | 17 kts | 74° |
| 2026-05-08 02:37 | 37.61307 | -122.37464 | 20 ft | 17 kts | 30° |
| 2026-05-08 02:38 | 37.61410 | -122.37395 | 23 ft | 18 kts | 27° |
| 2026-05-08 02:38 | 37.61519 | -122.37312 | 22 ft | 18 kts | 46° |
| 2026-05-08 02:38 | 37.61558 | -122.37155 | 21 ft | 21 kts | 97° |
| 2026-05-08 02:38 | 37.61498 | -122.36985 | 23 ft | 22 kts | 119° |
| 2026-05-08 02:39 | 37.61395 | -122.36824 | 18 ft | 25 kts | 130° |
| 2026-05-08 02:39 | 37.61300 | -122.36625 | 18 ft | 28 kts | 118° |
| 2026-05-08 02:39 | 37.61207 | -122.36403 | 16 ft | 29 kts | 118° |
| 2026-05-08 02:39 | 37.61118 | -122.36188 | 17 ft | 27 kts | 118° |
| 2026-05-08 02:40 | 37.61057 | -122.36039 | 20 ft | 12 kts | 109° |
| 2026-05-08 02:40 | 37.61070 | -122.35933 | 19 ft | 14 kts | 53° |
| 2026-05-08 02:40 | 37.61100 | -122.35904 | 18 ft | 0 kts | 28° |
| 2026-05-08 02:42 | 37.61109 | -122.35898 | 20 ft | 3 kts | 28° |
| 2026-05-08 02:42 | 37.61136 | -122.35880 | 18 ft | 6 kts | 23° |
| 2026-05-08 02:43 | 37.61184 | -122.35887 | 19 ft | 9 kts | 327° |
| 2026-05-08 02:43 | 37.61223 | -122.35968 | 18 ft | 16 kts | 298° |
| 2026-05-08 02:43 | 37.61415 | -122.36422 | 14 ft | 101 kts | 298° |
| 2026-05-08 02:43 | 37.61861 | -122.37481 | 43 ft | 168 kts | 297° |
| 2026-05-08 02:44 | 37.62472 | -122.38827 | 814 ft | 182 kts | 299° |
| 2026-05-08 02:44 | 37.63137 | -122.40295 | 1467 ft | 204 kts | 298° |
| 2026-05-08 02:44 | 37.63805 | -122.41905 | 2105 ft | 217 kts | 298° |
| 2026-05-08 02:44 | 37.64533 | -122.43625 | 2714 ft | 228 kts | 298° |
| 2026-05-08 02:45 | 37.65309 | -122.45422 | 3443 ft | 235 kts | 298° |
| 2026-05-08 02:45 | 37.66094 | -122.47217 | 4413 ft | 237 kts | 298° |
| 2026-05-08 02:45 | 37.66794 | -122.49149 | 5115 ft | 251 kts | 281° |
| 2026-05-08 02:45 | 37.66706 | -122.51367 | 5845 ft | 260 kts | 251° |
| 2026-05-08 02:46 | 37.65733 | -122.53303 | 6660 ft | 269 kts | 224° |
| 2026-05-08 02:46 | 37.64087 | -122.54469 | 7474 ft | 278 kts | 196° |
| 2026-05-08 02:46 | 37.62150 | -122.54525 | 8399 ft | 284 kts | 170° |
| 2026-05-08 02:46 | 37.60273 | -122.53723 | 9233 ft | 292 kts | 159° |
| 2026-05-08 02:47 | 37.58415 | -122.52649 | 10092 ft | 296 kts | 157° |
| 2026-05-08 02:47 | 37.56505 | -122.51529 | 10579 ft | 314 kts | 158° |
| 2026-05-08 02:47 | 37.54420 | -122.50365 | 10772 ft | 339 kts | 159° |
| 2026-05-08 02:47 | 37.52205 | -122.49172 | 11299 ft | 351 kts | 159° |
| 2026-05-08 02:48 | 37.49953 | -122.47943 | 12025 ft | 355 kts | 154° |
| 2026-05-08 02:48 | 37.47983 | -122.46047 | 12789 ft | 361 kts | 134° |
| 2026-05-08 02:48 | 37.46361 | -122.43619 | 13593 ft | 364 kts | 130° |
| 2026-05-08 02:48 | 37.44764 | -122.41112 | 14254 ft | 369 kts | 129° |
| 2026-05-08 02:49 | 37.43165 | -122.38575 | 14918 ft | 372 kts | 129° |
| 2026-05-08 02:49 | 37.41551 | -122.36017 | 15560 ft | 375 kts | 129° |
| 2026-05-08 02:49 | 37.39916 | -122.33441 | 16264 ft | 378 kts | 129° |
| 2026-05-08 02:49 | 37.38263 | -122.30852 | 16891 ft | 382 kts | 129° |
| 2026-05-08 02:50 | 37.36581 | -122.28231 | 17548 ft | 386 kts | 129° |
| 2026-05-08 02:50 | 37.34890 | -122.25603 | 18232 ft | 389 kts | 129° |
| 2026-05-08 02:50 | 37.33180 | -122.22953 | 18819 ft | 392 kts | 129° |
| 2026-05-08 02:50 | 37.31453 | -122.20282 | 19388 ft | 396 kts | 129° |
| 2026-05-08 02:51 | 37.29710 | -122.17588 | 19950 ft | 399 kts | 129° |
| 2026-05-08 02:51 | 37.27948 | -122.14869 | 20503 ft | 403 kts | 129° |
| 2026-05-08 02:51 | 37.26174 | -122.12134 | 21086 ft | 406 kts | 129° |
| 2026-05-08 02:51 | 37.24385 | -122.09378 | 21632 ft | 409 kts | 129° |
| 2026-05-08 02:52 | 37.22580 | -122.06601 | 22167 ft | 412 kts | 130° |
| 2026-05-08 02:52 | 37.20760 | -122.03801 | 22675 ft | 415 kts | 130° |
| 2026-05-08 02:52 | 37.18954 | -122.01025 | 23177 ft | 419 kts | 130° |
| 2026-05-08 02:52 | 37.17104 | -121.98184 | 23665 ft | 422 kts | 130° |
| 2026-05-08 02:53 | 37.15242 | -121.95328 | 24127 ft | 424 kts | 130° |
| 2026-05-08 02:53 | 37.13371 | -121.92460 | 24557 ft | 427 kts | 130° |
| 2026-05-08 02:53 | 37.11485 | -121.89572 | 24969 ft | 430 kts | 130° |
| 2026-05-08 02:53 | 37.09587 | -121.86667 | 25401 ft | 432 kts | 130° |
| 2026-05-08 02:54 | 37.07677 | -121.83747 | 25819 ft | 435 kts | 129° |
| 2026-05-08 02:54 | 37.05755 | -121.80810 | 26222 ft | 437 kts | 129° |
| 2026-05-08 02:54 | 37.03821 | -121.77858 | 26634 ft | 440 kts | 129° |
| 2026-05-08 02:54 | 37.01876 | -121.74893 | 27048 ft | 442 kts | 129° |
| 2026-05-08 02:55 | 36.99922 | -121.71915 | 27432 ft | 444 kts | 129° |
| 2026-05-08 02:55 | 36.95980 | -121.65917 | 28184 ft | 449 kts | 129° |
| 2026-05-08 02:55 | 36.93991 | -121.62895 | 28557 ft | 451 kts | 129° |
| 2026-05-08 02:56 | 36.91996 | -121.59866 | 28916 ft | 453 kts | 129° |
| 2026-05-08 02:56 | 36.89986 | -121.56818 | 29250 ft | 455 kts | 129° |
| 2026-05-08 02:56 | 36.87968 | -121.53761 | 29596 ft | 457 kts | 129° |
| 2026-05-08 02:56 | 36.85939 | -121.50688 | 29936 ft | 459 kts | 129° |
| 2026-05-08 02:57 | 36.83900 | -121.47604 | 30256 ft | 461 kts | 129° |
| 2026-05-08 02:57 | 36.81852 | -121.44510 | 30516 ft | 463 kts | 129° |
| 2026-05-08 02:57 | 36.79795 | -121.41405 | 30781 ft | 465 kts | 130° |
| 2026-05-08 02:57 | 36.77733 | -121.38294 | 31063 ft | 466 kts | 130° |
| 2026-05-08 02:58 | 36.75661 | -121.35172 | 31367 ft | 467 kts | 130° |
| 2026-05-08 02:58 | 36.73590 | -121.32055 | 31714 ft | 466 kts | 130° |
| 2026-05-08 02:58 | 36.71524 | -121.28948 | 32078 ft | 465 kts | 130° |
| 2026-05-08 02:58 | 36.69462 | -121.25849 | 32415 ft | 465 kts | 130° |
| 2026-05-08 02:59 | 36.67397 | -121.22749 | 32744 ft | 465 kts | 130° |
| 2026-05-08 02:59 | 36.65361 | -121.19693 | 33062 ft | 464 kts | 130° |
| 2026-05-08 02:59 | 36.63298 | -121.16603 | 33404 ft | 463 kts | 130° |
| 2026-05-08 02:59 | 36.61241 | -121.13522 | 33732 ft | 463 kts | 130° |
| 2026-05-08 03:00 | 36.59185 | -121.10446 | 34061 ft | 462 kts | 130° |
| 2026-05-08 03:00 | 36.57128 | -121.07372 | 34332 ft | 462 kts | 130° |
| 2026-05-08 03:00 | 36.55074 | -121.04305 | 34611 ft | 461 kts | 130° |
| 2026-05-08 03:00 | 36.53023 | -121.01244 | 34898 ft | 460 kts | 130° |
| 2026-05-08 03:01 | 36.50977 | -120.98192 | 35186 ft | 459 kts | 130° |
| 2026-05-08 03:01 | 36.48933 | -120.95149 | 35465 ft | 458 kts | 130° |
| 2026-05-08 03:01 | 36.46895 | -120.92107 | 35705 ft | 458 kts | 130° |
| 2026-05-08 03:01 | 36.44862 | -120.89058 | 35949 ft | 458 kts | 130° |
| 2026-05-08 03:02 | 36.42833 | -120.86008 | 36201 ft | 458 kts | 130° |
| 2026-05-08 03:02 | 36.40806 | -120.82965 | 36437 ft | 457 kts | 130° |
| 2026-05-08 03:02 | 36.38777 | -120.79920 | 36638 ft | 458 kts | 130° |
| 2026-05-08 03:02 | 36.36744 | -120.76874 | 36893 ft | 458 kts | 130° |
| 2026-05-08 03:03 | 36.34718 | -120.73842 | 37182 ft | 456 kts | 130° |
| 2026-05-08 03:03 | 36.32692 | -120.70812 | 37404 ft | 456 kts | 130° |
| 2026-05-08 03:03 | 36.30664 | -120.67784 | 37620 ft | 456 kts | 130° |
| 2026-05-08 03:03 | 36.28636 | -120.64758 | 37837 ft | 456 kts | 130° |
| 2026-05-08 03:04 | 36.26607 | -120.61734 | 38046 ft | 456 kts | 130° |
| 2026-05-08 03:04 | 36.24581 | -120.58717 | 38256 ft | 456 kts | 130° |
| 2026-05-08 03:04 | 36.22552 | -120.55698 | 38443 ft | 456 kts | 130° |
| 2026-05-08 03:04 | 36.20523 | -120.52682 | 38645 ft | 456 kts | 130° |
| 2026-05-08 03:05 | 36.18494 | -120.49667 | 38805 ft | 456 kts | 130° |
| 2026-05-08 03:05 | 36.16465 | -120.46656 | 38959 ft | 455 kts | 130° |
| 2026-05-08 03:05 | 36.14439 | -120.43652 | 39011 ft | 454 kts | 130° |
| 2026-05-08 03:06 | 36.10372 | -120.37631 | 39025 ft | 458 kts | 130° |
| 2026-05-08 03:06 | 36.06272 | -120.31570 | 39026 ft | 461 kts | 130° |
| 2026-05-08 03:07 | 36.02138 | -120.25472 | 39017 ft | 464 kts | 130° |
| 2026-05-08 03:07 | 35.97991 | -120.19362 | 38999 ft | 462 kts | 130° |
| 2026-05-08 03:08 | 35.93893 | -120.13337 | 38992 ft | 454 kts | 130° |
| 2026-05-08 03:08 | 35.89838 | -120.07384 | 39004 ft | 453 kts | 130° |
| 2026-05-08 03:09 | 35.85784 | -120.01443 | 39001 ft | 453 kts | 130° |
| 2026-05-08 03:09 | 35.81697 | -119.95536 | 39003 ft | 453 kts | 131° |
| 2026-05-08 03:10 | 35.77556 | -119.89671 | 39000 ft | 454 kts | 131° |
| 2026-05-08 03:10 | 35.73429 | -119.83839 | 38999 ft | 455 kts | 131° |
| 2026-05-08 03:11 | 35.69943 | -119.78907 | 38996 ft | 456 kts | 131° |
| 2026-05-08 03:11 | 35.65771 | -119.73005 | 38996 ft | 458 kts | 131° |
| 2026-05-08 03:12 | 35.60905 | -119.66133 | 38997 ft | 459 kts | 131° |
| 2026-05-08 03:12 | 35.57386 | -119.61170 | 38992 ft | 460 kts | 131° |
| 2026-05-08 03:13 | 35.53177 | -119.55246 | 38996 ft | 461 kts | 131° |
| 2026-05-08 03:13 | 35.48959 | -119.49318 | 38993 ft | 461 kts | 131° |
| 2026-05-08 03:14 | 35.44738 | -119.43397 | 38999 ft | 461 kts | 131° |
| 2026-05-08 03:14 | 35.40545 | -119.37525 | 38997 ft | 461 kts | 131° |
| 2026-05-08 03:15 | 35.36325 | -119.31626 | 39002 ft | 460 kts | 131° |
| 2026-05-08 03:15 | 35.32109 | -119.25743 | 39001 ft | 459 kts | 131° |
| 2026-05-08 03:16 | 35.27894 | -119.19872 | 39004 ft | 458 kts | 131° |
| 2026-05-08 03:16 | 35.23689 | -119.14023 | 39007 ft | 457 kts | 131° |
| 2026-05-08 03:17 | 35.19486 | -119.08188 | 39009 ft | 457 kts | 131° |
| 2026-05-08 03:17 | 35.15286 | -119.02366 | 39015 ft | 456 kts | 131° |
| 2026-05-08 03:18 | 35.11089 | -118.96559 | 39026 ft | 456 kts | 131° |
| 2026-05-08 03:18 | 35.06894 | -118.90765 | 39039 ft | 455 kts | 131° |
| 2026-05-08 03:19 | 35.02701 | -118.84982 | 39045 ft | 455 kts | 131° |
| 2026-05-08 03:19 | 34.98502 | -118.79202 | 39069 ft | 455 kts | 131° |
| 2026-05-08 03:20 | 34.94295 | -118.73419 | 39075 ft | 456 kts | 131° |
| 2026-05-08 03:20 | 34.90079 | -118.67634 | 39077 ft | 457 kts | 131° |
| 2026-05-08 03:21 | 34.85847 | -118.61838 | 39064 ft | 458 kts | 131° |
| 2026-05-08 03:21 | 34.81605 | -118.56037 | 39038 ft | 459 kts | 131° |
| 2026-05-08 03:22 | 34.77382 | -118.50271 | 39037 ft | 460 kts | 131° |
| 2026-05-08 03:22 | 34.73116 | -118.44456 | 39029 ft | 461 kts | 131° |
| 2026-05-08 03:23 | 34.68841 | -118.38639 | 39032 ft | 462 kts | 131° |
| 2026-05-08 03:23 | 34.64557 | -118.32820 | 39032 ft | 462 kts | 131° |
| 2026-05-08 03:24 | 34.60268 | -118.27003 | 39032 ft | 462 kts | 131° |
| 2026-05-08 03:24 | 34.55981 | -118.21198 | 39038 ft | 462 kts | 131° |
| 2026-05-08 03:25 | 34.51696 | -118.15406 | 39036 ft | 461 kts | 131° |
| 2026-05-08 03:25 | 34.47418 | -118.09631 | 39033 ft | 460 kts | 131° |
| 2026-05-08 03:26 | 34.43332 | -118.03707 | 39024 ft | 458 kts | 121° |
| 2026-05-08 03:26 | 34.40679 | -117.96768 | 39014 ft | 454 kts | 105° |
| 2026-05-08 03:27 | 34.38961 | -117.89419 | 39004 ft | 453 kts | 104° |
| 2026-05-08 03:27 | 34.37270 | -117.82074 | 39004 ft | 453 kts | 104° |
| 2026-05-08 03:28 | 34.35543 | -117.74751 | 39008 ft | 453 kts | 104° |
| 2026-05-08 03:28 | 34.33793 | -117.67448 | 39015 ft | 451 kts | 104° |
| 2026-05-08 03:29 | 34.32036 | -117.60165 | 39007 ft | 450 kts | 104° |
| 2026-05-08 03:29 | 34.30278 | -117.52902 | 39018 ft | 450 kts | 104° |
| 2026-05-08 03:30 | 34.27635 | -117.42008 | 39006 ft | 450 kts | 104° |
| 2026-05-08 03:31 | 34.24094 | -117.27483 | 39020 ft | 450 kts | 104° |
| 2026-05-08 03:32 | 34.21425 | -117.16593 | 39008 ft | 451 kts | 104° |
| 2026-05-08 03:32 | 34.19642 | -117.09340 | 39017 ft | 450 kts | 104° |
| 2026-05-08 03:33 | 34.17856 | -117.02099 | 38995 ft | 450 kts | 104° |
| 2026-05-08 03:33 | 34.16067 | -116.94866 | 39011 ft | 450 kts | 104° |
| 2026-05-08 03:34 | 34.14272 | -116.87623 | 38994 ft | 451 kts | 104° |
| 2026-05-08 03:34 | 34.12464 | -116.80352 | 38974 ft | 452 kts | 104° |
| 2026-05-08 03:35 | 34.10660 | -116.73118 | 38946 ft | 453 kts | 104° |
| 2026-05-08 03:35 | 34.08838 | -116.65831 | 38919 ft | 453 kts | 104° |
| 2026-05-08 03:36 | 34.07108 | -116.58934 | 38914 ft | 453 kts | 104° |
| 2026-05-08 03:36 | 34.05282 | -116.51672 | 38899 ft | 452 kts | 104° |
| 2026-05-08 03:37 | 34.03456 | -116.44429 | 38880 ft | 451 kts | 104° |
| 2026-05-08 03:37 | 34.01630 | -116.37206 | 38873 ft | 450 kts | 104° |
| 2026-05-08 03:38 | 33.99817 | -116.30054 | 38883 ft | 448 kts | 104° |
| 2026-05-08 03:38 | 33.97989 | -116.22864 | 38880 ft | 448 kts | 104° |
| 2026-05-08 03:39 | 33.96161 | -116.15690 | 38888 ft | 448 kts | 104° |
| 2026-05-08 03:39 | 33.94328 | -116.08517 | 38878 ft | 448 kts | 104° |
| 2026-05-08 03:40 | 33.92491 | -116.01347 | 38898 ft | 449 kts | 104° |
| 2026-05-08 03:40 | 33.90644 | -115.94158 | 38888 ft | 450 kts | 104° |
| 2026-05-08 03:41 | 33.88784 | -115.86940 | 38870 ft | 452 kts | 104° |
| 2026-05-08 03:41 | 33.86925 | -115.79743 | 38880 ft | 453 kts | 104° |
| 2026-05-08 03:42 | 33.85046 | -115.72489 | 38874 ft | 454 kts | 104° |
| 2026-05-08 03:42 | 33.83159 | -115.65223 | 38865 ft | 455 kts | 104° |
| 2026-05-08 03:43 | 33.81266 | -115.57954 | 38864 ft | 455 kts | 104° |
| 2026-05-08 03:43 | 33.79369 | -115.50688 | 38854 ft | 455 kts | 104° |
| 2026-05-08 03:44 | 33.77471 | -115.43442 | 38864 ft | 454 kts | 104° |
| 2026-05-08 03:44 | 33.75578 | -115.36231 | 38858 ft | 454 kts | 104° |
| 2026-05-08 03:45 | 33.73674 | -115.28996 | 38851 ft | 454 kts | 104° |
| 2026-05-08 03:45 | 33.71765 | -115.21763 | 38849 ft | 454 kts | 104° |
| 2026-05-08 03:46 | 33.69850 | -115.14525 | 38845 ft | 454 kts | 104° |
| 2026-05-08 03:46 | 33.67942 | -115.07333 | 38540 ft | 460 kts | 104° |
| 2026-05-08 03:46 | 33.66968 | -115.03665 | 37969 ft | 460 kts | 104° |
| 2026-05-08 03:47 | 33.65995 | -115.00012 | 37395 ft | 457 kts | 104° |
| 2026-05-08 03:47 | 33.65026 | -114.96378 | 36806 ft | 456 kts | 104° |
| 2026-05-08 03:47 | 33.64057 | -114.92749 | 36203 ft | 455 kts | 104° |
| 2026-05-08 03:47 | 33.63091 | -114.89134 | 35621 ft | 454 kts | 104° |
| 2026-05-08 03:48 | 33.62139 | -114.85575 | 35082 ft | 452 kts | 104° |
| 2026-05-08 03:48 | 33.61182 | -114.82001 | 34656 ft | 448 kts | 104° |
| 2026-05-08 03:48 | 33.60232 | -114.78462 | 34212 ft | 444 kts | 104° |
| 2026-05-08 03:48 | 33.59314 | -114.74945 | 33763 ft | 440 kts | 102° |
| 2026-05-08 03:49 | 33.58542 | -114.71370 | 33282 ft | 434 kts | 99° |
| 2026-05-08 03:49 | 33.57884 | -114.67906 | 32834 ft | 429 kts | 98° |
| 2026-05-08 03:49 | 33.57249 | -114.64430 | 32393 ft | 425 kts | 98° |
| 2026-05-08 03:49 | 33.56616 | -114.60984 | 31960 ft | 421 kts | 98° |
| 2026-05-08 03:50 | 33.55978 | -114.57571 | 31530 ft | 417 kts | 98° |
| 2026-05-08 03:50 | 33.55333 | -114.54191 | 31103 ft | 413 kts | 98° |
| 2026-05-08 03:50 | 33.54686 | -114.50845 | 30682 ft | 410 kts | 98° |
| 2026-05-08 03:50 | 33.54039 | -114.47529 | 30265 ft | 407 kts | 98° |
| 2026-05-08 03:51 | 33.53395 | -114.44239 | 29838 ft | 404 kts | 98° |
| 2026-05-08 03:51 | 33.52753 | -114.40970 | 29355 ft | 401 kts | 98° |
| 2026-05-08 03:51 | 33.52118 | -114.37737 | 28888 ft | 397 kts | 98° |
| 2026-05-08 03:51 | 33.51486 | -114.34528 | 28455 ft | 393 kts | 98° |
| 2026-05-08 03:52 | 33.50868 | -114.31393 | 28009 ft | 390 kts | 98° |
| 2026-05-08 03:52 | 33.50248 | -114.28247 | 27592 ft | 386 kts | 99° |
| 2026-05-08 03:52 | 33.49632 | -114.25127 | 27160 ft | 383 kts | 98° |
| 2026-05-08 03:52 | 33.49021 | -114.22038 | 26741 ft | 380 kts | 99° |
| 2026-05-08 03:53 | 33.48415 | -114.18975 | 26319 ft | 377 kts | 99° |
| 2026-05-08 03:53 | 33.47812 | -114.15930 | 25915 ft | 374 kts | 99° |
| 2026-05-08 03:53 | 33.47212 | -114.12907 | 25504 ft | 372 kts | 99° |
| 2026-05-08 03:53 | 33.46615 | -114.09907 | 25112 ft | 369 kts | 99° |
| 2026-05-08 03:54 | 33.46021 | -114.06929 | 24790 ft | 365 kts | 99° |
| 2026-05-08 03:54 | 33.45434 | -114.04002 | 24567 ft | 359 kts | 99° |
| 2026-05-08 03:54 | 33.44848 | -114.01079 | 24369 ft | 363 kts | 99° |
| 2026-05-08 03:54 | 33.44256 | -113.98118 | 24150 ft | 369 kts | 99° |
| 2026-05-08 03:55 | 33.43653 | -113.95118 | 23942 ft | 370 kts | 99° |
| 2026-05-08 03:55 | 33.43052 | -113.92132 | 23707 ft | 368 kts | 99° |
| 2026-05-08 03:55 | 33.42461 | -113.89197 | 23481 ft | 366 kts | 99° |
| 2026-05-08 03:55 | 33.41866 | -113.86238 | 23216 ft | 365 kts | 99° |
| 2026-05-08 03:56 | 33.41273 | -113.83294 | 22967 ft | 363 kts | 99° |
| 2026-05-08 03:56 | 33.40684 | -113.80366 | 22722 ft | 361 kts | 99° |
| 2026-05-08 03:56 | 33.40096 | -113.77456 | 22499 ft | 359 kts | 99° |
| 2026-05-08 03:56 | 33.39512 | -113.74558 | 22266 ft | 357 kts | 99° |
| 2026-05-08 03:57 | 33.38928 | -113.71669 | 22028 ft | 356 kts | 99° |
| 2026-05-08 03:57 | 33.38346 | -113.68794 | 21804 ft | 355 kts | 99° |
| 2026-05-08 03:57 | 33.37765 | -113.65925 | 21567 ft | 355 kts | 99° |
| 2026-05-08 03:57 | 33.37183 | -113.63057 | 21343 ft | 354 kts | 99° |
| 2026-05-08 03:58 | 33.36603 | -113.60200 | 21112 ft | 353 kts | 99° |
| 2026-05-08 03:58 | 33.36023 | -113.57347 | 20870 ft | 353 kts | 100° |
| 2026-05-08 03:58 | 33.35441 | -113.54490 | 20636 ft | 352 kts | 100° |
| 2026-05-08 03:58 | 33.34861 | -113.51642 | 20391 ft | 352 kts | 100° |
| 2026-05-08 03:59 | 33.34281 | -113.48804 | 20153 ft | 351 kts | 100° |
| 2026-05-08 03:59 | 33.33703 | -113.45977 | 19915 ft | 350 kts | 100° |
| 2026-05-08 03:59 | 33.33177 | -113.43141 | 19678 ft | 348 kts | 98° |
| 2026-05-08 03:59 | 33.32696 | -113.40313 | 19439 ft | 347 kts | 98° |
| 2026-05-08 04:00 | 33.32224 | -113.37491 | 19198 ft | 345 kts | 98° |
| 2026-05-08 04:00 | 33.31749 | -113.34677 | 18961 ft | 344 kts | 98° |
| 2026-05-08 04:00 | 33.31271 | -113.31882 | 18719 ft | 342 kts | 98° |
| 2026-05-08 04:00 | 33.30792 | -113.29099 | 18488 ft | 341 kts | 98° |
| 2026-05-08 04:01 | 33.30318 | -113.26367 | 18273 ft | 339 kts | 99° |
| 2026-05-08 04:01 | 33.29840 | -113.23615 | 18045 ft | 337 kts | 99° |
| 2026-05-08 04:01 | 33.29395 | -113.20866 | 17785 ft | 335 kts | 97° |
| 2026-05-08 04:01 | 33.29007 | -113.18120 | 17547 ft | 333 kts | 96° |
| 2026-05-08 04:02 | 33.28633 | -113.15403 | 17323 ft | 330 kts | 96° |
| 2026-05-08 04:02 | 33.28255 | -113.12715 | 17241 ft | 328 kts | 96° |
| 2026-05-08 04:02 | 33.27869 | -113.10009 | 17038 ft | 332 kts | 97° |
| 2026-05-08 04:02 | 33.27482 | -113.07278 | 16834 ft | 333 kts | 95° |
| 2026-05-08 04:03 | 33.27346 | -113.04527 | 16619 ft | 329 kts | 87° |
| 2026-05-08 04:03 | 33.27541 | -112.99175 | 16199 ft | 321 kts | 84° |
| 2026-05-08 04:03 | 33.27652 | -112.96515 | 16013 ft | 320 kts | 85° |
| 2026-05-08 04:04 | 33.27746 | -112.93862 | 15801 ft | 319 kts | 85° |
| 2026-05-08 04:04 | 33.27825 | -112.91211 | 15599 ft | 319 kts | 85° |
| 2026-05-08 04:04 | 33.27895 | -112.88565 | 15394 ft | 318 kts | 85° |
| 2026-05-08 04:04 | 33.27960 | -112.85923 | 15203 ft | 317 kts | 86° |
| 2026-05-08 04:05 | 33.28022 | -112.83308 | 14987 ft | 311 kts | 86° |
| 2026-05-08 04:05 | 33.28129 | -112.80753 | 14784 ft | 304 kts | 82° |
| 2026-05-08 04:05 | 33.28345 | -112.78271 | 14588 ft | 297 kts | 81° |
| 2026-05-08 04:05 | 33.28589 | -112.75834 | 14407 ft | 294 kts | 81° |
| 2026-05-08 04:06 | 33.28833 | -112.73449 | 14223 ft | 293 kts | 81° |
| 2026-05-08 04:06 | 33.29074 | -112.71039 | 14042 ft | 291 kts | 81° |
| 2026-05-08 04:06 | 33.29310 | -112.68631 | 13851 ft | 293 kts | 81° |
| 2026-05-08 04:06 | 33.29545 | -112.66197 | 13660 ft | 296 kts | 81° |
| 2026-05-08 04:07 | 33.29777 | -112.63755 | 13441 ft | 296 kts | 81° |
| 2026-05-08 04:07 | 33.30007 | -112.61313 | 13226 ft | 294 kts | 81° |
| 2026-05-08 04:07 | 33.30233 | -112.58889 | 13023 ft | 293 kts | 81° |
| 2026-05-08 04:07 | 33.30458 | -112.56474 | 12829 ft | 292 kts | 81° |
| 2026-05-08 04:08 | 33.30682 | -112.54065 | 12633 ft | 291 kts | 81° |
| 2026-05-08 04:08 | 33.30904 | -112.51664 | 12426 ft | 290 kts | 81° |
| 2026-05-08 04:08 | 33.31125 | -112.49268 | 12238 ft | 290 kts | 81° |
| 2026-05-08 04:08 | 33.31346 | -112.46873 | 12054 ft | 289 kts | 81° |
| 2026-05-08 04:09 | 33.31566 | -112.44477 | 11867 ft | 289 kts | 81° |
| 2026-05-08 04:09 | 33.31786 | -112.42088 | 11681 ft | 290 kts | 81° |
| 2026-05-08 04:09 | 33.32005 | -112.39690 | 11492 ft | 290 kts | 81° |
| 2026-05-08 04:09 | 33.32224 | -112.37295 | 11303 ft | 290 kts | 82° |
| 2026-05-08 04:10 | 33.32443 | -112.34887 | 11114 ft | 291 kts | 82° |
| 2026-05-08 04:10 | 33.32665 | -112.32484 | 10929 ft | 291 kts | 82° |
| 2026-05-08 04:10 | 33.32885 | -112.30067 | 10727 ft | 292 kts | 82° |
| 2026-05-08 04:10 | 33.33102 | -112.27676 | 10536 ft | 293 kts | 82° |
| 2026-05-08 04:11 | 33.33323 | -112.25246 | 10299 ft | 295 kts | 82° |
| 2026-05-08 04:11 | 33.33543 | -112.22814 | 10089 ft | 291 kts | 82° |
| 2026-05-08 04:11 | 33.33758 | -112.20430 | 9885 ft | 286 kts | 82° |
| 2026-05-08 04:11 | 33.33969 | -112.18091 | 9687 ft | 280 kts | 82° |
| 2026-05-08 04:12 | 33.34176 | -112.15798 | 9494 ft | 274 kts | 81° |
| 2026-05-08 04:12 | 33.34378 | -112.13553 | 9300 ft | 269 kts | 81° |
| 2026-05-08 04:12 | 33.34576 | -112.11352 | 9132 ft | 264 kts | 82° |
| 2026-05-08 04:12 | 33.34765 | -112.09195 | 8941 ft | 259 kts | 83° |
| 2026-05-08 04:13 | 33.34801 | -112.07064 | 8677 ft | 253 kts | 89° |
| 2026-05-08 04:13 | 33.34755 | -112.04983 | 8425 ft | 249 kts | 89° |
| 2026-05-08 04:13 | 33.34706 | -112.02914 | 8189 ft | 247 kts | 89° |
| 2026-05-08 04:13 | 33.34668 | -112.00880 | 7948 ft | 244 kts | 89° |
| 2026-05-08 04:14 | 33.34637 | -111.98859 | 7675 ft | 242 kts | 89° |
| 2026-05-08 04:14 | 33.34608 | -111.96848 | 7406 ft | 242 kts | 89° |
| 2026-05-08 04:14 | 33.34580 | -111.94841 | 7152 ft | 241 kts | 89° |
| 2026-05-08 04:14 | 33.34563 | -111.93513 | 7042 ft | 241 kts | 88° |
| 2026-05-08 04:15 | 33.34597 | -111.91451 | 6661 ft | 250 kts | 86° |
| 2026-05-08 04:15 | 33.34671 | -111.89383 | 6332 ft | 248 kts | 86° |
| 2026-05-08 04:15 | 33.34749 | -111.87331 | 6074 ft | 243 kts | 85° |
| 2026-05-08 04:15 | 33.34823 | -111.85314 | 6039 ft | 244 kts | 86° |
| 2026-05-08 04:16 | 33.34827 | -111.83290 | 6033 ft | 243 kts | 89° |
| 2026-05-08 04:16 | 33.34803 | -111.81279 | 6018 ft | 241 kts | 89° |
| 2026-05-08 04:16 | 33.34772 | -111.79288 | 5890 ft | 238 kts | 90° |
| 2026-05-08 04:16 | 33.34740 | -111.77304 | 5496 ft | 239 kts | 90° |
| 2026-05-08 04:17 | 33.34713 | -111.75316 | 5209 ft | 238 kts | 90° |
| 2026-05-08 04:17 | 33.34691 | -111.73354 | 5084 ft | 235 kts | 90° |
| 2026-05-08 04:17 | 33.34671 | -111.71405 | 5049 ft | 236 kts | 90° |
| 2026-05-08 04:17 | 33.34653 | -111.69432 | 5052 ft | 240 kts | 89° |
| 2026-05-08 04:18 | 33.34680 | -111.67450 | 5031 ft | 241 kts | 79° |
| 2026-05-08 04:18 | 33.35356 | -111.65671 | 5042 ft | 235 kts | 46° |
| 2026-05-08 04:18 | 33.36685 | -111.64616 | 5033 ft | 230 kts | 13° |
| 2026-05-08 04:18 | 33.38258 | -111.64371 | 5051 ft | 228 kts | 1° |
| 2026-05-08 04:19 | 33.39851 | -111.64289 | 5040 ft | 229 kts | 360° |
| 2026-05-08 04:19 | 33.41453 | -111.64221 | 5027 ft | 230 kts | 360° |
| 2026-05-08 04:19 | 33.43049 | -111.64235 | 5012 ft | 228 kts | 345° |
| 2026-05-08 04:19 | 33.44357 | -111.65189 | 4958 ft | 222 kts | 305° |
| 2026-05-08 04:20 | 33.44820 | -111.66913 | 4881 ft | 221 kts | 273° |
| 2026-05-08 04:20 | 33.44790 | -111.68755 | 4786 ft | 220 kts | 267° |
| 2026-05-08 04:20 | 33.44670 | -111.70536 | 4655 ft | 209 kts | 266° |
| 2026-05-08 04:20 | 33.44555 | -111.72219 | 4542 ft | 197 kts | 266° |
| 2026-05-08 04:21 | 33.44457 | -111.73812 | 4462 ft | 190 kts | 267° |
| 2026-05-08 04:21 | 33.44367 | -111.75394 | 4376 ft | 191 kts | 267° |
| 2026-05-08 04:21 | 33.44280 | -111.76971 | 4283 ft | 189 kts | 267° |
| 2026-05-08 04:21 | 33.44196 | -111.78532 | 4185 ft | 187 kts | 268° |
| 2026-05-08 04:22 | 33.44119 | -111.80086 | 4079 ft | 187 kts | 269° |
| 2026-05-08 04:22 | 33.44086 | -111.81620 | 4022 ft | 187 kts | 270° |
| 2026-05-08 04:22 | 33.44079 | -111.83201 | 3802 ft | 191 kts | 270° |
| 2026-05-08 04:22 | 33.44077 | -111.84773 | 3542 ft | 185 kts | 271° |
| 2026-05-08 04:23 | 33.44076 | -111.86266 | 3319 ft | 173 kts | 270° |
| 2026-05-08 04:23 | 33.44075 | -111.87656 | 3079 ft | 160 kts | 271° |
| 2026-05-08 04:23 | 33.44075 | -111.88939 | 2849 ft | 152 kts | 271° |
| 2026-05-08 04:23 | 33.44075 | -111.90184 | 2674 ft | 149 kts | 270° |
| 2026-05-08 04:24 | 33.44074 | -111.91419 | 2468 ft | 147 kts | 270° |
| 2026-05-08 04:24 | 33.44074 | -111.92633 | 2283 ft | 145 kts | 270° |
| 2026-05-08 04:24 | 33.44075 | -111.93854 | 2112 ft | 148 kts | 270° |
| 2026-05-08 04:24 | 33.44075 | -111.95093 | 1887 ft | 150 kts | 269° |
| 2026-05-08 04:25 | 33.44075 | -111.96357 | 1703 ft | 153 kts | 270° |
| 2026-05-08 04:25 | 33.44075 | -111.97596 | 1445 ft | 147 kts | 270° |
| 2026-05-08 04:25 | 33.44087 | -111.98843 | 1255 ft | 150 kts | 269° |
| 2026-05-08 04:25 | 33.44086 | -112.00056 | 1125 ft | 138 kts | 269° |
| 2026-05-08 04:26 | 33.44084 | -112.01088 | 1125 ft | 107 kts | 269° |
| 2026-05-08 04:26 | 33.44084 | -112.01749 | 1125 ft | 33 kts | 270° |
| 2026-05-08 04:26 | 33.44073 | -112.01977 | 1118 ft | 20 kts | 244° |